createdAt,value
2022-09-10T00:00:04.025Z,91.46
2022-09-10T00:01:04.010Z,91.86
2022-09-10T00:02:04.063Z,92.26
2022-09-10T00:03:04.144Z,92.26
2022-09-10T00:04:03.970Z,92.16
2022-09-10T00:05:11.856Z,92.26
2022-09-10T00:06:03.946Z,92.67
2022-09-10T00:07:04.948Z,92.67
2022-09-10T00:08:03.921Z,92.77
2022-09-10T00:09:03.908Z,92.67
2022-09-10T00:10:03.913Z,93.38
2022-09-10T00:11:03.882Z,92.77
2022-09-10T00:12:03.870Z,92.72
2022-09-10T00:13:03.871Z,92.16
2022-09-10T00:14:03.854Z,91.71
2022-09-10T00:15:03.882Z,91.82
2022-09-10T00:16:03.894Z,91.82
2022-09-10T00:17:03.818Z,92.06
2022-09-10T00:18:03.830Z,92.16
2022-09-10T00:19:03.790Z,91.71
2022-09-10T00:20:04.353Z,91.92
2022-09-10T00:21:03.800Z,92.06
2022-09-10T00:22:03.770Z,92.63
2022-09-10T00:23:03.760Z,92.77
2022-09-10T00:24:03.766Z,93.38
2022-09-10T00:25:08.089Z,93.38
2022-09-10T00:26:03.740Z,92.87
2022-09-10T00:27:03.702Z,92.87
2022-09-10T00:28:03.704Z,92.87
2022-09-10T00:29:03.687Z,93.07
2022-09-10T00:30:03.676Z,92.97
2022-09-10T00:31:03.760Z,93.38
2022-09-10T00:32:03.651Z,92.97
2022-09-10T00:33:03.641Z,93.38
2022-09-10T00:34:03.648Z,93.83
2022-09-10T00:35:03.643Z,93.32
2022-09-10T00:36:03.622Z,93.52
2022-09-10T00:37:03.593Z,93.62
2022-09-10T00:38:03.581Z,93.42
2022-09-10T00:39:03.637Z,93.93
2022-09-10T00:40:03.582Z,93.83
2022-09-10T00:41:04.315Z,94.13
2022-09-10T00:42:03.538Z,93.83
2022-09-10T00:43:03.556Z,93.77
2022-09-10T00:44:03.514Z,93.62
2022-09-10T00:45:03.516Z,93.83
2022-09-10T00:46:03.563Z,94.64
2022-09-10T00:47:03.478Z,94.68
2022-09-10T00:48:03.469Z,94.68
2022-09-10T00:49:03.460Z,94.58
2022-09-10T00:50:03.468Z,94.68
2022-09-10T00:51:03.456Z,94.68
2022-09-10T00:52:03.689Z,94.54
2022-09-10T00:53:03.409Z,94.54
2022-09-10T00:54:03.401Z,94.68
2022-09-10T00:55:03.410Z,94.48
2022-09-10T00:56:03.387Z,94.38
2022-09-10T00:57:03.372Z,94.89
2022-09-10T00:58:03.676Z,94.48
2022-09-10T00:59:03.348Z,94.78
2022-09-10T01:00:03.349Z,94.48
2022-09-10T01:01:03.386Z,94.89
2022-09-10T01:02:03.340Z,94.98
2022-09-10T01:03:03.321Z,94.68
2022-09-10T01:04:03.292Z,94.78
2022-09-10T01:05:05.529Z,94.78
2022-09-10T01:06:03.326Z,94.78
2022-09-10T01:07:03.322Z,94.78
2022-09-10T01:08:03.240Z,94.89
2022-09-10T01:09:03.230Z,94.78
2022-09-10T01:10:05.504Z,94.89
2022-09-10T01:11:03.213Z,94.89
2022-09-10T01:12:04.530Z,94.78
2022-09-10T01:13:03.863Z,94.78
2022-09-10T01:14:03.184Z,94.98
2022-09-10T01:15:03.559Z,94.78
2022-09-10T01:16:03.225Z,94.48
2022-09-10T01:17:03.142Z,94.78
2022-09-10T01:18:03.145Z,94.98
2022-09-10T01:19:03.121Z,95.29
2022-09-10T01:20:03.105Z,95.23
2022-09-10T01:21:03.130Z,95.29
2022-09-10T01:22:03.082Z,95.23
2022-09-10T01:23:03.080Z,95.43
2022-09-10T01:24:03.079Z,95.74
2022-09-10T01:25:03.068Z,95.54
2022-09-10T01:26:03.106Z,95.54
2022-09-10T01:27:03.045Z,95.43
2022-09-10T01:28:03.040Z,95.70
2022-09-10T01:29:03.008Z,95.13
2022-09-10T01:30:02.989Z,95.43
2022-09-10T01:31:03.014Z,95.43
2022-09-10T01:32:03.406Z,95.29
2022-09-10T01:33:02.957Z,95.94
2022-09-10T01:34:02.952Z,95.39
2022-09-10T01:35:02.958Z,95.74
2022-09-10T01:36:02.926Z,95.19
2022-09-10T01:37:02.935Z,95.43
2022-09-10T01:38:02.901Z,95.64
2022-09-10T01:39:03.075Z,95.43
2022-09-10T01:40:02.990Z,95.13
2022-09-10T01:41:02.873Z,95.54
2022-09-10T01:42:02.857Z,95.23
2022-09-10T01:43:02.913Z,95.23
2022-09-10T01:44:02.858Z,95.34
2022-09-10T01:45:02.861Z,95.43
2022-09-10T01:46:02.844Z,95.64
2022-09-10T01:47:02.813Z,95.34
2022-09-10T01:48:02.812Z,95.03
2022-09-10T01:49:02.792Z,95.54
2022-09-10T01:50:02.783Z,95.34
2022-09-10T01:51:02.752Z,95.64
2022-09-10T01:52:02.766Z,95.94
2022-09-10T01:53:02.758Z,95.94
2022-09-10T01:54:02.720Z,96.25
2022-09-10T01:55:02.710Z,96.15
2022-09-10T01:56:02.720Z,96.55
2022-09-10T01:57:02.695Z,96.50
2022-09-10T01:58:02.742Z,96.50
2022-09-10T01:59:02.668Z,96.80
2022-09-10T02:00:02.672Z,96.80
2022-09-10T02:01:02.689Z,96.45
2022-09-10T02:02:02.702Z,96.39
2022-09-10T02:03:02.623Z,96.55
2022-09-10T02:04:02.903Z,96.60
2022-09-10T02:05:02.605Z,96.39
2022-09-10T02:06:04.450Z,97.00
2022-09-10T02:07:02.575Z,96.39
2022-09-10T02:08:02.562Z,96.50
2022-09-10T02:09:02.567Z,96.30
2022-09-10T02:10:02.558Z,96.80
2022-09-10T02:11:02.524Z,96.80
2022-09-10T02:12:02.514Z,97.11
2022-09-10T02:13:02.505Z,96.60
2022-09-10T02:14:02.520Z,96.80
2022-09-10T02:15:02.557Z,97.05
2022-09-10T02:16:02.487Z,96.95
2022-09-10T02:17:02.459Z,97.56
2022-09-10T02:18:02.453Z,97.45
2022-09-10T02:19:12.291Z,97.35
2022-09-10T02:20:02.420Z,97.31
2022-09-10T02:21:02.424Z,97.15
2022-09-10T02:22:02.402Z,97.86
2022-09-10T02:23:02.407Z,97.20
2022-09-10T02:24:02.375Z,97.11
2022-09-10T02:25:02.384Z,97.31
2022-09-10T02:26:02.360Z,97.31
2022-09-10T02:27:02.391Z,97.45
2022-09-10T02:28:02.356Z,96.90
2022-09-10T02:29:02.326Z,97.20
2022-09-10T02:30:02.316Z,97.51
2022-09-10T02:31:02.298Z,97.20
2022-09-10T02:32:02.977Z,97.20
2022-09-10T02:33:02.307Z,97.20
2022-09-10T02:34:02.274Z,97.00
2022-09-10T02:35:02.277Z,97.00
2022-09-10T02:36:02.244Z,97.00
2022-09-10T02:37:02.251Z,97.11
2022-09-10T02:38:02.348Z,97.20
2022-09-10T02:39:02.210Z,97.35
2022-09-10T02:40:02.583Z,97.51
2022-09-10T02:41:02.203Z,97.20
2022-09-10T02:42:02.187Z,97.15
2022-09-10T02:43:02.163Z,97.35
2022-09-10T02:44:02.147Z,97.76
2022-09-10T02:45:02.149Z,97.45
2022-09-10T02:46:02.159Z,97.45
2022-09-10T02:47:02.131Z,97.66
2022-09-10T02:48:02.109Z,97.86
2022-09-10T02:49:02.106Z,97.66
2022-09-10T02:50:02.103Z,97.25
2022-09-10T02:51:02.268Z,97.66
2022-09-10T02:52:02.062Z,97.56
2022-09-10T02:53:02.050Z,97.45
2022-09-10T02:54:02.036Z,97.25
2022-09-10T02:55:02.197Z,97.35
2022-09-10T02:56:02.015Z,97.35
2022-09-10T02:57:02.022Z,97.25
2022-09-10T02:58:01.987Z,97.56
2022-09-10T02:59:01.983Z,97.45
2022-09-10T03:00:07.853Z,97.56
2022-09-10T03:01:02.004Z,98.16
2022-09-10T03:02:01.985Z,97.96
2022-09-10T03:03:03.194Z,97.86
2022-09-10T03:04:01.934Z,98.07
2022-09-10T03:05:02.003Z,98.21
2022-09-10T03:06:02.854Z,97.50
2022-09-10T03:07:01.898Z,97.66
2022-09-10T03:08:01.880Z,97.80
2022-09-10T03:09:01.872Z,97.66
2022-09-10T03:10:01.898Z,97.76
2022-09-10T03:11:01.862Z,97.80
2022-09-10T03:12:02.854Z,98.16
2022-09-10T03:13:01.852Z,98.07
2022-09-10T03:14:01.812Z,98.16
2022-09-10T03:15:01.804Z,98.16
2022-09-10T03:16:01.855Z,98.21
2022-09-10T03:17:01.785Z,97.71
2022-09-10T03:18:01.779Z,98.11
2022-09-10T03:19:01.766Z,98.11
2022-09-10T03:20:01.764Z,97.91
2022-09-10T03:21:01.782Z,98.01
2022-09-10T03:22:01.725Z,98.11
2022-09-10T03:23:01.918Z,98.41
2022-09-10T03:24:03.212Z,98.11
2022-09-10T03:25:01.691Z,98.07
2022-09-10T03:26:06.052Z,98.21
2022-09-10T03:27:01.696Z,98.27
2022-09-10T03:28:01.658Z,98.21
2022-09-10T03:29:01.664Z,98.07
2022-09-10T03:30:01.635Z,98.07
2022-09-10T03:31:01.644Z,97.30
2022-09-10T03:32:01.640Z,97.56
2022-09-10T03:33:01.604Z,98.07
2022-09-10T03:34:01.590Z,97.25
2022-09-10T03:35:01.581Z,97.25
2022-09-10T03:36:01.601Z,97.15
2022-09-10T03:37:01.558Z,97.45
2022-09-10T03:38:01.546Z,96.95
2022-09-10T03:39:01.553Z,97.25
2022-09-10T03:40:01.622Z,97.15
2022-09-10T03:41:01.536Z,96.34
2022-09-10T03:42:01.599Z,96.44
2022-09-10T03:43:01.501Z,96.64
2022-09-10T03:44:01.488Z,97.05
2022-09-10T03:45:01.511Z,96.75
2022-09-10T03:48:05.800Z,97.05
2022-09-10T03:49:05.780Z,96.95
2022-09-10T03:50:05.774Z,96.95
2022-09-10T03:51:07.288Z,97.25
2022-09-10T03:52:05.744Z,97.05
2022-09-10T03:53:05.731Z,97.09
2022-09-10T03:54:05.719Z,96.75
2022-09-10T03:55:05.711Z,97.05
2022-09-10T03:56:05.694Z,97.60
2022-09-10T03:57:05.702Z,97.09
2022-09-10T03:58:05.675Z,97.56
2022-09-10T03:59:05.665Z,97.66
2022-09-10T04:00:05.669Z,97.71
2022-09-10T04:01:05.713Z,97.40
2022-09-10T04:02:05.664Z,98.01
2022-09-10T04:03:05.616Z,97.66
2022-09-10T04:04:05.688Z,98.01
2022-09-10T04:05:05.598Z,97.60
2022-09-10T04:06:06.490Z,98.01
2022-09-10T04:07:55.218Z,97.30
2022-09-10T04:08:55.192Z,98.26
2022-09-10T04:09:55.180Z,98.26
2022-09-10T04:10:55.203Z,98.46
2022-09-10T04:11:55.162Z,98.26
2022-09-10T04:12:55.869Z,98.05
2022-09-10T04:13:55.140Z,98.46
2022-09-10T04:14:55.129Z,98.36
2022-09-10T04:15:55.140Z,98.56
2022-09-10T04:16:55.119Z,98.36
2022-09-10T04:17:55.099Z,97.85
2022-09-10T04:18:55.078Z,98.46
2022-09-10T04:19:55.070Z,98.46
2022-09-10T04:20:55.108Z,98.46
2022-09-10T04:21:55.052Z,98.36
2022-09-10T04:22:55.059Z,98.36
2022-09-10T04:23:55.199Z,98.66
2022-09-10T04:24:55.019Z,98.46
2022-09-10T04:25:55.002Z,98.77
2022-09-10T04:26:55.013Z,98.46
2022-09-10T04:27:56.098Z,98.56
2022-09-10T04:28:54.973Z,98.56
2022-09-10T04:29:54.962Z,98.66
2022-09-10T04:30:54.971Z,98.16
2022-09-10T04:31:54.997Z,98.26
2022-09-10T04:32:54.936Z,98.26
2022-09-10T04:34:02.939Z,98.05
2022-09-10T04:34:54.903Z,97.65
2022-09-10T04:35:54.911Z,98.56
2022-09-10T04:36:54.878Z,98.05
2022-09-10T04:37:54.870Z,98.46
2022-09-10T04:38:54.868Z,98.36
2022-09-10T04:39:54.895Z,98.16
2022-09-10T04:40:54.856Z,98.16
2022-09-10T04:41:54.850Z,98.41
2022-09-10T04:42:54.829Z,99.32
2022-09-10T04:43:54.809Z,98.30
2022-09-10T04:44:54.792Z,98.16
2022-09-10T04:45:54.831Z,98.26
2022-09-10T04:46:54.785Z,98.30
2022-09-10T04:47:54.782Z,98.16
2022-09-10T04:48:54.758Z,98.36
2022-09-10T04:49:54.738Z,98.26
2022-09-10T04:51:15.351Z,98.36
2022-09-10T04:51:58.449Z,98.41
2022-09-10T04:52:54.712Z,98.26
2022-09-10T04:53:54.696Z,98.16
2022-09-10T04:54:54.681Z,98.56
2022-09-10T04:55:54.672Z,98.81
2022-09-10T04:56:55.086Z,99.11
2022-09-10T04:57:54.651Z,99.22
2022-09-10T04:58:54.641Z,99.27
2022-09-10T04:59:54.628Z,99.27
2022-09-10T05:00:54.709Z,98.81
2022-09-10T05:01:54.668Z,98.41
2022-09-10T05:02:54.594Z,98.41
2022-09-10T05:03:54.605Z,98.61
2022-09-10T05:04:54.588Z,98.46
2022-09-10T05:05:54.560Z,98.26
2022-09-10T05:06:54.561Z,98.36
2022-09-10T05:07:54.538Z,98.26
2022-09-10T05:08:54.528Z,98.46
2022-09-10T05:09:54.517Z,99.32
2022-09-10T05:10:54.503Z,99.17
2022-09-10T05:11:54.511Z,98.77
2022-09-10T05:12:54.488Z,99.07
2022-09-10T05:13:54.483Z,99.07
2022-09-10T05:14:54.470Z,99.27
2022-09-10T05:15:54.449Z,98.46
2022-09-10T05:16:54.490Z,98.26
2022-09-10T05:17:54.428Z,98.56
2022-09-10T05:18:54.423Z,98.26
2022-09-10T05:19:54.455Z,98.26
2022-09-10T05:20:54.401Z,98.46
2022-09-10T05:21:54.423Z,98.26
2022-09-10T05:22:54.378Z,97.85
2022-09-10T05:23:54.419Z,98.01
2022-09-10T05:24:54.356Z,98.36
2022-09-10T05:25:54.345Z,98.05
2022-09-10T05:26:54.385Z,98.11
2022-09-10T05:27:54.318Z,98.11
2022-09-10T05:28:54.308Z,97.80
2022-09-10T05:29:54.294Z,97.96
2022-09-10T05:30:54.279Z,97.35
2022-09-10T05:31:54.551Z,96.84
2022-09-10T05:32:54.259Z,96.64
2022-09-10T05:33:54.261Z,96.03
2022-09-10T05:34:54.239Z,95.73
2022-09-10T05:35:54.367Z,95.83
2022-09-10T05:36:54.233Z,95.48
2022-09-10T05:37:54.207Z,95.38
2022-09-10T05:38:54.194Z,94.87
2022-09-10T05:39:54.229Z,94.83
2022-09-10T05:40:54.171Z,94.62
2022-09-10T05:41:54.179Z,94.62
2022-09-10T05:42:54.149Z,93.57
2022-09-10T05:43:54.140Z,93.26
2022-09-10T05:44:54.138Z,92.71
2022-09-10T05:45:54.156Z,92.71
2022-09-10T05:46:54.138Z,92.16
2022-09-10T05:47:54.093Z,91.51
2022-09-10T05:48:54.107Z,91.11
2022-09-10T05:49:54.109Z,90.20
2022-09-10T05:50:54.133Z,89.54
2022-09-10T05:51:54.079Z,89.24
2022-09-10T05:52:55.022Z,88.90
2022-09-10T05:53:54.026Z,87.24
2022-09-10T05:54:54.031Z,86.73
2022-09-10T05:55:53.999Z,86.39
2022-09-10T05:56:54.005Z,86.29
2022-09-10T05:57:53.979Z,85.74
2022-09-10T05:58:53.967Z,85.25
2022-09-10T05:59:53.979Z,84.01
2022-09-10T06:00:53.951Z,82.96
2022-09-10T06:01:54.136Z,81.45
2022-09-10T06:02:54.038Z,80.60
2022-09-10T06:03:53.909Z,79.76
2022-09-10T06:04:53.928Z,78.67
2022-09-10T06:05:53.889Z,77.43
2022-09-10T06:06:53.896Z,76.79
2022-09-10T06:07:53.906Z,75.25
2022-09-10T06:08:53.860Z,72.84
2022-09-10T06:09:54.277Z,73.34
2022-09-10T06:10:53.853Z,73.61
2022-09-10T06:11:56.376Z,72.67
2022-09-10T06:12:53.814Z,72.03
2022-09-10T06:13:53.796Z,70.96
2022-09-10T06:14:53.794Z,69.29
2022-09-10T06:15:53.775Z,68.99
2022-09-10T06:16:53.774Z,68.02
2022-09-10T06:17:53.995Z,67.13
2022-09-10T06:18:53.744Z,68.16
2022-09-10T06:19:53.738Z,68.09
2022-09-10T06:20:54.027Z,67.46
2022-09-10T06:21:53.721Z,65.89
2022-09-10T06:22:53.712Z,64.76
2022-09-10T06:23:53.706Z,65.16
2022-09-10T06:24:53.824Z,65.03
2022-09-10T06:25:53.664Z,64.60
2022-09-10T06:26:53.655Z,63.87
2022-09-10T06:27:54.660Z,63.04
2022-09-10T06:28:53.632Z,61.91
2022-09-10T06:29:53.622Z,62.38
2022-09-10T06:30:53.649Z,60.76
2022-09-10T06:31:53.598Z,60.03
2022-09-10T06:32:54.693Z,59.01
2022-09-10T06:33:53.579Z,58.74
2022-09-10T06:34:53.610Z,59.34
2022-09-10T06:35:53.847Z,58.31
2022-09-10T06:36:53.542Z,58.91
2022-09-10T06:37:53.550Z,58.01
2022-09-10T06:38:54.433Z,58.11
2022-09-10T06:39:53.580Z,57.69
2022-09-10T06:40:53.497Z,57.82
2022-09-10T06:41:54.014Z,58.09
2022-09-10T06:42:53.482Z,57.19
2022-09-10T06:43:53.465Z,57.56
2022-09-10T06:44:53.455Z,56.74
2022-09-10T06:45:53.575Z,55.62
2022-09-10T06:48:37.068Z,54.75
2022-09-10T06:48:54.607Z,53.90
2022-09-10T06:49:53.397Z,52.39
2022-09-10T06:50:53.399Z,52.19
2022-09-10T06:51:53.382Z,51.70
2022-09-10T06:52:53.369Z,51.84
2022-09-10T06:53:53.367Z,51.62
2022-09-10T06:54:53.355Z,51.10
2022-09-10T06:55:53.372Z,48.98
2022-09-10T06:56:53.353Z,48.54
2022-09-10T06:57:53.316Z,47.50
2022-09-10T06:58:53.479Z,46.22
2022-09-10T06:59:53.290Z,47.06
2022-09-10T07:00:53.413Z,46.88
2022-09-10T07:01:53.305Z,48.19
2022-09-10T07:02:53.258Z,49.40
2022-09-10T07:03:53.250Z,48.51
2022-09-10T07:04:53.240Z,48.90
2022-09-10T07:05:53.224Z,48.21
2022-09-10T07:06:53.238Z,48.68
2022-09-10T07:07:53.204Z,47.16
2022-09-10T07:08:53.190Z,46.64
2022-09-10T07:09:54.638Z,46.40
2022-09-10T07:10:53.168Z,46.15
2022-09-10T07:11:53.192Z,44.76
2022-09-10T07:12:53.148Z,43.83
2022-09-10T07:13:53.207Z,44.55
2022-09-10T07:14:53.122Z,42.39
2022-09-10T07:15:53.264Z,42.21
2022-09-10T07:16:53.105Z,42.65
2022-09-10T07:17:53.089Z,43.95
2022-09-10T07:18:53.101Z,44.17
2022-09-10T07:19:53.093Z,45.05
2022-09-10T07:20:53.063Z,44.93
2022-09-10T07:21:53.047Z,43.93
2022-09-10T07:22:53.057Z,44.12
2022-09-10T07:23:53.044Z,42.58
2022-09-10T07:24:53.014Z,42.10
2022-09-10T07:25:53.008Z,42.08
2022-09-10T07:26:53.003Z,40.86
2022-09-10T07:27:53.001Z,41.13
2022-09-10T07:28:53.247Z,40.80
2022-09-10T07:29:52.980Z,39.08
2022-09-10T07:30:53.017Z,38.38
2022-09-10T07:31:52.936Z,37.65
2022-09-10T07:32:53.175Z,37.19
2022-09-10T07:33:52.919Z,37.41
2022-09-10T07:34:52.945Z,38.40
2022-09-10T07:35:52.896Z,38.38
2022-09-10T07:36:52.897Z,37.41
2022-09-10T07:37:52.875Z,38.12
2022-09-10T07:38:52.866Z,38.51
2022-09-10T07:39:52.914Z,37.89
2022-09-10T07:40:52.847Z,37.07
2022-09-10T07:41:52.835Z,36.74
2022-09-10T07:42:52.824Z,36.18
2022-09-10T07:43:52.827Z,36.08
2022-09-10T07:44:55.250Z,36.06
2022-09-10T07:45:52.878Z,35.65
2022-09-10T07:46:52.782Z,36.14
2022-09-10T07:47:52.794Z,36.65
2022-09-10T07:48:52.781Z,36.57
2022-09-10T07:49:53.037Z,36.35
2022-09-10T07:50:52.764Z,35.83
2022-09-10T07:51:56.393Z,34.72
2022-09-10T07:52:53.756Z,34.53
2022-09-10T07:53:52.712Z,34.72
2022-09-10T07:54:58.815Z,34.52
2022-09-10T07:55:52.690Z,34.14
2022-09-10T07:56:52.681Z,35.02
2022-09-10T07:57:52.669Z,34.76
2022-09-10T07:58:52.659Z,35.05
2022-09-10T07:59:55.614Z,34.53
2022-09-10T08:00:52.641Z,35.17
2022-09-10T08:01:52.866Z,33.11
2022-09-10T08:02:52.624Z,33.07
2022-09-10T08:03:52.606Z,33.17
2022-09-10T08:04:52.625Z,32.86
2022-09-10T08:05:52.581Z,32.59
2022-09-10T08:06:52.653Z,32.79
2022-09-10T08:07:52.561Z,32.82
2022-09-10T08:08:52.604Z,32.32
2022-09-10T08:09:55.677Z,33.12
2022-09-10T08:10:52.531Z,33.83
2022-09-10T08:11:52.519Z,33.85
2022-09-10T08:12:52.515Z,33.81
2022-09-10T08:13:52.510Z,33.61
2022-09-10T08:14:52.591Z,33.29
2022-09-10T08:15:52.523Z,31.60
2022-09-10T08:16:52.476Z,31.29
2022-09-10T08:17:52.455Z,31.36
2022-09-10T08:18:52.446Z,32.09
2022-09-10T08:19:52.980Z,32.49
2022-09-10T08:20:52.433Z,32.52
2022-09-10T08:21:52.436Z,32.82
2022-09-10T08:22:52.423Z,33.73
2022-09-10T08:23:52.767Z,33.83
2022-09-10T08:24:52.388Z,34.61
2022-09-10T08:25:52.392Z,34.90
2022-09-10T08:26:52.393Z,33.41
2022-09-10T08:27:52.359Z,32.71
2022-09-10T08:28:52.344Z,32.78
2022-09-10T08:29:52.350Z,30.88
2022-09-10T08:30:52.358Z,30.98
2022-09-10T08:31:52.334Z,31.10
2022-09-10T08:32:52.323Z,31.50
2022-09-10T08:33:52.310Z,32.39
2022-09-10T08:34:52.363Z,32.31
2022-09-10T08:35:52.295Z,31.60
2022-09-10T08:36:52.264Z,32.49
2022-09-10T08:37:52.255Z,31.89
2022-09-10T08:38:59.520Z,31.86
2022-09-10T08:39:53.299Z,30.36
2022-09-10T08:40:52.223Z,30.66
2022-09-10T08:41:52.211Z,30.66
2022-09-10T08:42:52.200Z,30.78
2022-09-10T08:43:52.206Z,30.79
2022-09-10T08:44:52.207Z,31.86
2022-09-10T08:45:52.249Z,29.90
2022-09-10T08:46:52.163Z,29.57
2022-09-10T08:47:52.189Z,30.25
2022-09-10T08:48:52.207Z,29.75
2022-09-10T08:49:52.134Z,29.57
2022-09-10T08:50:52.125Z,30.57
2022-09-10T08:51:52.503Z,30.36
2022-09-10T08:52:52.103Z,29.85
2022-09-10T08:53:52.107Z,29.57
2022-09-10T08:54:52.083Z,30.36
2022-09-10T08:55:53.029Z,31.31
2022-09-10T08:56:52.087Z,31.99
2022-09-10T08:57:52.051Z,31.31
2022-09-10T08:58:52.039Z,32.82
2022-09-10T08:59:52.032Z,32.64
2022-09-10T09:00:52.038Z,32.62
2022-09-10T09:01:52.171Z,32.12
2022-09-10T09:02:52.009Z,31.97
2022-09-10T09:03:52.008Z,30.85
2022-09-10T09:04:52.003Z,29.74
2022-09-10T09:05:51.971Z,29.32
2022-09-10T09:06:51.969Z,28.80
2022-09-10T09:07:51.967Z,28.22
2022-09-10T09:08:51.988Z,28.23
2022-09-10T09:09:51.936Z,28.62
2022-09-10T09:10:51.927Z,28.62
2022-09-10T09:11:51.913Z,28.31
2022-09-10T09:12:51.903Z,28.00
2022-09-10T09:13:51.905Z,27.80
2022-09-10T09:14:51.922Z,27.86
2022-09-10T09:15:51.949Z,26.59
2022-09-10T09:16:51.863Z,26.10
2022-09-10T09:17:51.864Z,26.50
2022-09-10T09:18:51.844Z,25.56
2022-09-10T09:19:51.891Z,25.36
2022-09-10T09:20:51.822Z,26.64
2022-09-10T09:21:51.823Z,27.62
2022-09-10T09:22:51.805Z,27.81
2022-09-10T09:24:12.321Z,27.02
2022-09-10T09:24:52.790Z,27.20
2022-09-10T09:25:51.798Z,26.92
2022-09-10T09:26:51.789Z,26.86
2022-09-10T09:27:51.974Z,27.98
2022-09-10T09:28:51.746Z,29.46
2022-09-10T09:29:51.735Z,29.81
2022-09-10T09:30:51.741Z,30.02
2022-09-10T09:31:52.660Z,30.39
2022-09-10T09:32:51.728Z,29.30
2022-09-10T09:33:51.755Z,29.56
2022-09-10T09:34:51.688Z,28.77
2022-09-10T09:35:51.693Z,28.56
2022-09-10T09:36:51.669Z,28.07
2022-09-10T09:38:01.745Z,27.67
2022-09-10T09:38:51.646Z,28.07
2022-09-10T09:39:51.723Z,27.75
2022-09-10T09:40:51.626Z,28.04
2022-09-10T09:41:51.615Z,28.16
2022-09-10T09:42:51.898Z,29.17
2022-09-10T09:43:51.601Z,29.80
2022-09-10T09:44:56.433Z,30.02
2022-09-10T09:45:52.593Z,29.95
2022-09-10T09:47:03.653Z,32.13
2022-09-10T09:47:51.580Z,34.21
2022-09-10T09:48:51.831Z,36.19
2022-09-10T09:49:51.595Z,36.73
2022-09-10T09:50:51.574Z,37.27
2022-09-10T09:51:51.532Z,36.87
2022-09-10T09:52:51.521Z,36.44
2022-09-10T09:54:06.163Z,36.51
2022-09-10T09:55:15.949Z,35.39
2022-09-10T09:55:52.475Z,34.91
2022-09-10T09:56:51.468Z,33.77
2022-09-10T09:57:51.454Z,33.80
2022-09-10T09:58:51.472Z,34.58
2022-09-10T09:59:51.484Z,33.46
2022-09-10T10:00:51.424Z,32.96
2022-09-10T10:01:51.506Z,33.12
2022-09-10T10:02:51.429Z,32.57
2022-09-10T10:03:51.571Z,32.78
2022-09-10T10:04:51.392Z,33.06
2022-09-10T10:05:51.378Z,32.44
2022-09-10T10:06:53.622Z,31.32
2022-09-10T10:07:51.360Z,30.02
2022-09-10T10:08:51.380Z,29.80
2022-09-10T10:09:51.378Z,29.20
2022-09-10T10:10:51.323Z,30.32
2022-09-10T10:11:51.335Z,31.24
2022-09-10T10:12:51.306Z,32.73
2022-09-10T10:13:51.297Z,31.87
2022-09-10T10:14:51.341Z,32.08
2022-09-10T10:15:51.406Z,31.88
2022-09-10T10:16:51.589Z,31.97
2022-09-10T10:17:51.257Z,31.27
2022-09-10T10:18:51.259Z,31.63
2022-09-10T10:19:54.641Z,30.13
2022-09-10T10:20:51.257Z,30.18
2022-09-10T10:21:51.258Z,29.36
2022-09-10T10:22:51.246Z,28.70
2022-09-10T10:23:51.211Z,28.91
2022-09-10T10:24:51.228Z,29.41
2022-09-10T10:25:51.225Z,29.30
2022-09-10T10:26:51.174Z,29.86
2022-09-10T10:27:51.177Z,30.08
2022-09-10T10:28:51.180Z,30.04
2022-09-10T10:29:51.164Z,31.52
2022-09-10T10:30:51.154Z,30.94
2022-09-10T10:31:51.137Z,30.23
2022-09-10T10:32:51.119Z,31.02
2022-09-10T10:33:51.363Z,31.12
2022-09-10T10:34:51.125Z,30.13
2022-09-10T10:35:51.087Z,30.63
2022-09-10T10:36:51.081Z,31.09
2022-09-10T10:37:51.179Z,30.10
2022-09-10T10:38:51.066Z,30.10
2022-09-10T10:39:51.753Z,29.50
2022-09-10T10:40:51.038Z,31.12
2022-09-10T10:41:51.028Z,32.79
2022-09-10T10:42:51.022Z,34.81
2022-09-10T10:43:51.005Z,34.79
2022-09-10T10:44:51.119Z,34.27
2022-09-10T10:45:50.999Z,33.15
2022-09-10T10:46:51.000Z,33.46
2022-09-10T10:47:50.965Z,34.89
2022-09-10T10:48:50.957Z,34.88
2022-09-10T10:49:50.954Z,34.83
2022-09-10T10:51:00.129Z,36.44
2022-09-10T10:51:50.942Z,37.47
2022-09-10T10:52:50.964Z,38.39
2022-09-10T10:53:50.916Z,39.72
2022-09-10T10:54:51.827Z,40.55
2022-09-10T10:55:50.892Z,41.67
2022-09-10T10:56:50.916Z,42.22
2022-09-10T10:57:50.870Z,44.33
2022-09-10T10:58:54.157Z,44.72
2022-09-10T10:59:50.875Z,42.28
2022-09-10T11:00:50.835Z,41.77
2022-09-10T11:01:50.910Z,42.86
2022-09-10T11:02:50.927Z,42.89
2022-09-10T11:03:50.809Z,43.40
2022-09-10T11:04:50.878Z,43.44
2022-09-10T11:05:50.787Z,44.87
2022-09-10T11:06:51.624Z,45.57
2022-09-10T11:07:50.895Z,46.59
2022-09-10T11:08:50.792Z,46.23
2022-09-10T11:09:50.764Z,46.00
2022-09-10T11:10:50.771Z,45.01
2022-09-10T11:11:50.723Z,45.10
2022-09-10T11:12:50.747Z,44.47
2022-09-10T11:13:50.974Z,44.93
2022-09-10T11:14:50.719Z,45.82
2022-09-10T11:15:50.769Z,46.51
2022-09-10T11:16:51.363Z,44.23
2022-09-10T11:17:50.653Z,42.55
2022-09-10T11:18:50.658Z,40.23
2022-09-10T11:20:00.627Z,38.88
2022-09-10T11:20:51.647Z,39.11
2022-09-10T11:21:50.611Z,41.11
2022-09-10T11:22:50.601Z,41.88
2022-09-10T11:23:50.697Z,43.15
2022-09-10T11:24:51.220Z,44.13
2022-09-10T11:25:50.571Z,42.18
2022-09-10T11:26:50.584Z,40.62
2022-09-10T11:27:50.548Z,39.82
2022-09-10T11:28:50.651Z,39.64
2022-09-10T11:29:50.525Z,39.58
2022-09-10T11:30:50.538Z,39.60
2022-09-10T11:31:50.501Z,40.90
2022-09-10T11:32:56.765Z,41.43
2022-09-10T11:33:50.481Z,42.12
2022-09-10T11:34:50.472Z,41.73
2022-09-10T11:35:50.465Z,42.41
2022-09-10T11:36:50.451Z,40.96
2022-09-10T11:37:50.440Z,38.53
2022-09-10T11:38:50.452Z,37.57
2022-09-10T11:39:50.492Z,36.90
2022-09-10T11:40:50.413Z,37.29
2022-09-10T11:41:50.399Z,36.94
2022-09-10T11:42:50.406Z,34.86
2022-09-10T11:43:50.414Z,36.08
2022-09-10T11:44:50.368Z,37.49
2022-09-10T11:45:50.535Z,39.27
2022-09-10T11:46:50.361Z,41.22
2022-09-10T11:47:50.339Z,42.24
2022-09-10T11:48:50.342Z,42.34
2022-09-10T11:49:50.316Z,42.00
2022-09-10T11:50:50.307Z,40.27
2022-09-10T11:51:50.303Z,40.98
2022-09-10T11:52:50.287Z,41.49
2022-09-10T11:53:50.275Z,41.73
2022-09-10T11:54:50.282Z,41.96
2022-09-10T11:55:50.258Z,42.58
2022-09-10T11:56:50.377Z,41.94
2022-09-10T11:57:50.237Z,41.51
2022-09-10T11:58:50.252Z,40.96
2022-09-10T11:59:50.238Z,38.85
2022-09-10T12:00:50.216Z,38.31
2022-09-10T12:01:50.227Z,37.69
2022-09-10T12:02:50.205Z,37.19
2022-09-10T12:03:50.201Z,37.08
2022-09-10T12:04:50.173Z,36.57
2022-09-10T12:05:50.157Z,35.95
2022-09-10T12:06:50.207Z,36.23
2022-09-10T12:07:50.137Z,35.43
2022-09-10T12:08:50.166Z,36.05
2022-09-10T12:09:50.224Z,35.84
2022-09-10T12:10:50.112Z,36.21
2022-09-10T12:11:50.101Z,36.04
2022-09-10T12:12:50.154Z,35.68
2022-09-10T12:13:50.478Z,36.05
2022-09-10T12:14:50.108Z,35.64
2022-09-10T12:15:50.129Z,35.82
2022-09-10T12:16:50.041Z,35.31
2022-09-10T12:17:50.648Z,35.02
2022-09-10T12:18:50.036Z,34.81
2022-09-10T12:19:50.032Z,34.42
2022-09-10T12:20:50.011Z,34.21
2022-09-10T12:21:50.000Z,33.92
2022-09-10T12:22:50.003Z,34.01
2022-09-10T12:23:49.986Z,33.92
2022-09-10T12:24:49.983Z,34.00
2022-09-10T12:25:49.958Z,34.03
2022-09-10T12:26:49.994Z,34.75
2022-09-10T12:27:49.937Z,35.48
2022-09-10T12:28:49.936Z,35.61
2022-09-10T12:29:49.941Z,36.82
2022-09-10T12:30:50.030Z,37.25
2022-09-10T12:31:49.899Z,37.76
2022-09-10T12:32:49.887Z,39.25
2022-09-10T12:33:49.880Z,39.88
2022-09-10T12:34:50.215Z,40.80
2022-09-10T12:35:49.885Z,41.22
2022-09-10T12:36:49.848Z,41.43
2022-09-10T12:37:49.848Z,42.04
2022-09-10T12:38:49.827Z,42.65
2022-09-10T12:39:49.875Z,42.08
2022-09-10T12:40:50.192Z,42.69
2022-09-10T12:41:49.818Z,43.60
2022-09-10T12:42:49.788Z,43.90
2022-09-10T12:43:49.842Z,44.12
2022-09-10T12:44:49.815Z,44.51
2022-09-10T12:45:51.607Z,45.62
2022-09-10T12:46:49.755Z,44.95
2022-09-10T12:47:49.740Z,46.66
2022-09-10T12:48:49.723Z,46.08
2022-09-10T12:49:49.823Z,46.58
2022-09-10T12:50:49.705Z,47.66
2022-09-10T12:51:49.729Z,47.15
2022-09-10T12:52:49.699Z,46.83
2022-09-10T12:53:49.668Z,46.41
2022-09-10T12:54:49.654Z,45.82
2022-09-10T12:55:49.670Z,45.72